Terminal Aerodrome Forecast
Issued by NWS

Home | Current Version | Previous Version | Text Only | Print | Product List | Glossary On
Versions: 1 2 3 4 5 6 7 8 9 10 11 12 13 14 15 16
574
FTUS41 KPHI 212323
TAFPNE
TAF
KPNE 212323Z 2200/2224 27004KT P6SM SCT250
     FM221500 VRB04KT P6SM SCT200
     FM222000 24005KT P6SM BKN060 PROB30 2223/2224 4SM -TSRA
      OVC025CB=

USA.gov is the U.S. government's official web portal to all federal, state and local government web resources and services.